Entebbe, Uganda

84°F / 29°C
Partly Cloudy
Heat Index: 86°F / 30°C
Humidity: 51%
Dew Point: 64°F / 18°C
Wind: SSW at 16 mph / 26 km/h
Pressure: 29.89 in / 1012 hPa (Falling)
Visibility: 5.6 miles / 9.0 kilometers
Clouds: (FEW) : 2600 ft / 792 m
(FEW) : 2800 ft / 853 m
Yesterday's Maximum: 84°F / 29°C
Yesterday's Minimum: 68°F / 20°C approx.
Yesterday's Cooling Degree Days: 11 approx.
UV: 8 out of 16
Sunrise:7:00 AM EAT
Sunset:7:07 PM EAT
Moon Rise:7:10 PM EAT
Moon Set:6:39 AM EAT
Moon Phase Full Moon
NOAA Weather Radio
No local feed.
METAR HUEN 191300Z 20014KT 9000 FEW026 FEW028CB 29/18 Q1012
As of: 4:00 PM EAT on February 19, 2019
Observed at: Entebbe, Uganda

View Station's History

No Yes

Local Satellite

Current Satellite Forecast
Region Default Local
No Yes

View Full Screen WunderMap

Forecast

Current Satellite Forecast
Monday
. High: 84° F. / 28° C.

. High: 84° F. / 29° C.

Features

Weather Apps

WunderRadio

Weather Underground Apps
Check out our wide variety of mobile and setup applications.

Weather Underground Applications

Top of Page

© Copyright 2019
The Weather Company, LLC